createdAt,value
2024-02-29T00:00:14.194Z,77.50
2024-02-29T00:02:42.160Z,67.10
2024-02-29T00:05:12.807Z,73.38
2024-02-29T00:07:41.074Z,82.30
2024-02-29T00:10:10.549Z,73.25
2024-02-29T00:12:39.900Z,66.63
2024-02-29T00:15:08.802Z,73.47
2024-02-29T00:17:37.981Z,68.40
2024-02-29T00:20:10.547Z,77.22
2024-02-29T00:22:38.986Z,73.65
2024-02-29T00:25:07.542Z,73.38
2024-02-29T00:27:35.350Z,67.28
2024-02-29T00:30:03.186Z,73.50
2024-02-29T00:32:31.001Z,70.18
2024-02-29T00:35:00.159Z,79.03
2024-02-29T00:37:29.643Z,74.90
2024-02-29T00:39:59.515Z,75.30
2024-02-29T00:42:27.302Z,77.05
2024-02-29T00:44:55.100Z,73.05
2024-02-29T00:47:22.903Z,82.07
2024-02-29T00:49:50.673Z,66.47
2024-02-29T00:52:19.872Z,71.88
2024-02-29T00:54:47.657Z,84.82
2024-02-29T00:57:15.406Z,75.20
2024-02-29T00:59:43.238Z,83.47
2024-02-29T01:02:10.971Z,73.55
2024-02-29T01:04:39.058Z,76.35
2024-02-29T01:07:06.858Z,75.25
2024-02-29T01:09:36.054Z,81.57
2024-02-29T01:12:03.821Z,69.55
2024-02-29T01:14:31.497Z,73.50
2024-02-29T01:16:59.218Z,76.00
2024-02-29T01:19:26.909Z,81.05
2024-02-29T01:21:54.639Z,78.97
2024-02-29T01:24:24.633Z,83.80
2024-02-29T01:26:53.763Z,78.63
2024-02-29T01:29:21.485Z,77.07
2024-02-29T01:31:49.204Z,88.80
2024-02-29T01:34:17.020Z,75.50
2024-02-29T01:36:45.698Z,84.60
2024-02-29T01:39:13.604Z,79.57
2024-02-29T01:41:41.386Z,77.80
2024-02-29T01:44:10.427Z,70.70
2024-02-29T01:46:38.185Z,79.80
2024-02-29T01:49:05.991Z,72.28
2024-02-29T01:51:34.486Z,80.95
2024-02-29T01:54:02.398Z,79.45
2024-02-29T01:56:30.163Z,79.20
2024-02-29T01:58:58.041Z,74.50
2024-02-29T02:01:27.601Z,85.82
2024-02-29T02:03:55.345Z,72.50
2024-02-29T02:06:23.152Z,71.47
2024-02-29T02:08:50.923Z,72.10
2024-02-29T02:11:18.717Z,82.57
2024-02-29T02:13:46.434Z,81.80
2024-02-29T02:16:14.319Z,73.18
2024-02-29T02:18:43.492Z,81.57
2024-02-29T02:21:12.560Z,79.03
2024-02-29T02:23:40.197Z,81.85
2024-02-29T02:26:07.894Z,77.15
2024-02-29T02:28:35.582Z,81.65
2024-02-29T02:31:03.310Z,73.65
2024-02-29T02:33:31.103Z,83.63
2024-02-29T02:35:58.792Z,86.82
2024-02-29T02:38:27.834Z,79.38
2024-02-29T02:40:55.566Z,72.95
2024-02-29T02:43:23.466Z,71.68
2024-02-29T02:45:51.190Z,80.55
2024-02-29T02:48:18.937Z,78.10
2024-02-29T02:50:46.787Z,79.78
2024-02-29T02:53:14.574Z,74.05
2024-02-29T02:55:43.644Z,84.10
2024-02-29T02:58:11.405Z,74.68
2024-02-29T03:00:39.135Z,71.80
2024-02-29T03:03:06.934Z,81.38
2024-02-29T03:05:34.596Z,74.95
2024-02-29T03:08:04.596Z,77.70
2024-02-29T03:10:32.278Z,78.07
2024-02-29T03:13:01.500Z,76.07
2024-02-29T03:15:29.307Z,76.97
2024-02-29T03:17:57.657Z,77.53
2024-02-29T03:20:25.408Z,80.93
2024-02-29T03:22:53.164Z,72.47
2024-02-29T03:25:21.320Z,70.78
2024-02-29T03:27:49.712Z,74.40
2024-02-29T03:30:19.258Z,82.22
2024-02-29T03:32:47.070Z,81.68
2024-02-29T03:35:14.920Z,67.00
2024-02-29T03:37:42.656Z,75.63
2024-02-29T03:40:11.653Z,78.57
2024-02-29T03:42:40.790Z,79.05
2024-02-29T03:45:09.915Z,79.30
2024-02-29T03:47:39.816Z,81.43
2024-02-29T03:50:11.291Z,76.95
2024-02-29T03:52:39.816Z,78.40
2024-02-29T03:55:09.349Z,73.70
2024-02-29T03:57:37.293Z,76.38
2024-02-29T04:00:12.106Z,74.97
2024-02-29T04:02:41.929Z,73.47
2024-02-29T04:05:10.465Z,72.75
2024-02-29T04:07:38.976Z,81.68
2024-02-29T04:10:07.578Z,75.07
2024-02-29T04:12:35.391Z,83.35
2024-02-29T04:15:03.691Z,71.25
2024-02-29T04:17:31.851Z,67.45
2024-02-29T04:20:00.960Z,73.20
2024-02-29T04:22:30.822Z,77.30
2024-02-29T04:24:58.597Z,74.97
2024-02-29T04:27:26.395Z,84.72
2024-02-29T04:29:54.819Z,71.95
2024-02-29T04:32:22.609Z,70.05
2024-02-29T04:34:50.412Z,73.90
2024-02-29T04:37:19.610Z,77.43
2024-02-29T04:39:47.465Z,79.68
2024-02-29T04:42:15.214Z,83.80
2024-02-29T04:44:42.956Z,75.22
2024-02-29T04:47:10.780Z,77.30
2024-02-29T04:49:38.573Z,75.25
2024-02-29T04:52:06.835Z,77.18
2024-02-29T04:54:35.959Z,73.72
2024-02-29T04:57:03.732Z,70.07
2024-02-29T04:59:32.763Z,74.50
2024-02-29T05:02:02.545Z,71.28
2024-02-29T05:04:30.586Z,72.20
2024-02-29T05:06:58.430Z,71.75
2024-02-29T05:09:26.309Z,69.95
2024-02-29T05:11:55.971Z,70.57
2024-02-29T05:14:23.750Z,69.32
2024-02-29T05:16:51.486Z,68.68
2024-02-29T05:19:19.312Z,69.40
2024-02-29T05:21:48.255Z,77.28
2024-02-29T05:24:16.163Z,73.18
2024-02-29T05:26:43.909Z,72.07
2024-02-29T05:29:13.122Z,75.35
2024-02-29T05:31:40.841Z,68.65
2024-02-29T05:34:09.197Z,72.03
2024-02-29T05:36:37.000Z,83.50
2024-02-29T05:39:04.890Z,69.00
2024-02-29T05:41:32.722Z,73.18
2024-02-29T05:44:00.484Z,67.47
2024-02-29T05:46:29.638Z,65.35
2024-02-29T05:48:58.625Z,64.88
2024-02-29T05:51:26.987Z,72.28
2024-02-29T05:53:56.058Z,70.82
2024-02-29T05:56:23.984Z,80.72
2024-02-29T05:58:51.768Z,75.85
2024-02-29T06:01:19.988Z,73.90
2024-02-29T06:03:49.302Z,67.43
2024-02-29T06:06:17.415Z,78.85
2024-02-29T06:08:45.261Z,71.95
2024-02-29T06:11:15.123Z,67.18
2024-02-29T06:13:42.979Z,75.40
2024-02-29T06:16:13.416Z,69.07
2024-02-29T06:18:41.196Z,77.30
2024-02-29T06:21:11.438Z,77.13
2024-02-29T06:23:39.205Z,77.88
2024-02-29T06:26:07.081Z,74.93
2024-02-29T06:28:34.867Z,76.65
2024-02-29T06:31:03.046Z,71.95
2024-02-29T06:33:30.836Z,81.75
2024-02-29T06:35:58.818Z,75.35
2024-02-29T06:38:27.925Z,75.00
2024-02-29T06:40:55.999Z,80.30
2024-02-29T06:43:23.818Z,84.75
2024-02-29T06:45:52.370Z,79.32
2024-02-29T06:48:21.310Z,72.88
2024-02-29T06:50:49.616Z,78.70
2024-02-29T06:53:17.398Z,84.55
2024-02-29T06:55:46.602Z,77.10
2024-02-29T06:58:14.396Z,82.13
2024-02-29T07:00:42.270Z,73.82
2024-02-29T07:03:10.674Z,71.43
2024-02-29T07:05:38.641Z,74.85
2024-02-29T07:08:07.306Z,72.57
2024-02-29T07:10:35.030Z,70.18
2024-02-29T07:13:04.205Z,67.28
2024-02-29T07:15:32.320Z,70.95
2024-02-29T07:18:00.182Z,71.38
2024-02-29T07:20:29.136Z,75.15
2024-02-29T07:22:58.233Z,66.15
2024-02-29T07:25:26.242Z,72.25
2024-02-29T07:27:55.981Z,68.05
2024-02-29T07:30:25.345Z,65.35
2024-02-29T07:32:53.560Z,65.45
2024-02-29T07:35:21.371Z,76.97
2024-02-29T07:37:51.147Z,77.70
2024-02-29T07:40:20.699Z,75.45
2024-02-29T07:42:48.580Z,73.07
2024-02-29T07:45:19.382Z,69.28
2024-02-29T07:47:50.251Z,69.43
2024-02-29T07:50:18.996Z,73.85
2024-02-29T07:52:46.837Z,75.32
2024-02-29T07:55:15.858Z,70.45
2024-02-29T07:57:43.877Z,75.70
2024-02-29T08:00:12.854Z,71.72
2024-02-29T08:02:43.557Z,74.47
2024-02-29T08:05:12.779Z,73.60
2024-02-29T08:07:40.541Z,69.30
2024-02-29T08:10:09.853Z,70.85
2024-02-29T08:12:37.632Z,62.63
2024-02-29T08:15:06.109Z,67.07
2024-02-29T08:17:33.845Z,67.10
2024-02-29T08:20:01.736Z,59.13
2024-02-29T08:22:30.889Z,63.30
2024-02-29T08:24:58.723Z,61.33
2024-02-29T08:27:26.971Z,66.15
2024-02-29T08:29:54.711Z,57.33
2024-02-29T08:32:22.445Z,72.95
2024-02-29T08:34:50.358Z,66.65
2024-02-29T08:37:18.134Z,58.45
2024-02-29T08:39:47.331Z,64.50
2024-02-29T08:42:15.113Z,60.28
2024-02-29T08:44:44.489Z,60.05
2024-02-29T08:47:12.173Z,58.47
2024-02-29T08:49:40.338Z,55.25
2024-02-29T08:52:09.068Z,61.78
2024-02-29T08:54:37.536Z,61.55
2024-02-29T08:57:08.549Z,57.70
2024-02-29T08:59:36.589Z,63.28
2024-02-29T09:02:06.561Z,57.75
2024-02-29T09:04:34.471Z,56.30
2024-02-29T09:07:02.311Z,54.65
2024-02-29T09:09:30.549Z,55.63
2024-02-29T09:11:58.310Z,54.53
2024-02-29T09:14:27.517Z,53.88
2024-02-29T09:16:55.281Z,56.95
2024-02-29T09:19:23.103Z,53.58
2024-02-29T09:21:50.958Z,51.58
2024-02-29T09:24:19.317Z,47.92
2024-02-29T09:26:47.108Z,50.53
2024-02-29T09:29:14.963Z,50.28
2024-02-29T09:31:44.771Z,42.20
2024-02-29T09:34:12.550Z,39.92
2024-02-29T09:36:40.376Z,45.38
2024-02-29T09:39:08.424Z,44.53
2024-02-29T09:41:58.837Z,43.63
2024-02-29T09:44:25.623Z,36.70
2024-02-29T09:46:54.786Z,34.33
2024-02-29T09:49:23.445Z,32.55
2024-02-29T09:51:51.650Z,39.13
2024-02-29T09:54:19.680Z,42.72
2024-02-29T09:56:48.239Z,34.03
2024-02-29T09:59:18.518Z,37.05
2024-02-29T10:01:48.493Z,38.65
2024-02-29T10:04:17.919Z,34.90
2024-02-29T10:06:46.042Z,35.13
2024-02-29T10:09:13.889Z,42.08
2024-02-29T10:11:42.495Z,35.03
2024-02-29T10:14:20.708Z,35.78
2024-02-29T10:16:51.716Z,37.13
2024-02-29T10:19:21.229Z,40.30
2024-02-29T10:21:49.312Z,32.60
2024-02-29T10:24:17.646Z,31.27
2024-02-29T10:26:45.424Z,33.47
2024-02-29T10:29:15.986Z,32.47
2024-02-29T10:31:48.028Z,27.95
2024-02-29T10:34:21.140Z,32.05
2024-02-29T10:36:50.367Z,28.42
2024-02-29T10:39:18.186Z,28.92
2024-02-29T10:41:51.419Z,30.60
2024-02-29T10:44:22.712Z,30.10
2024-02-29T10:46:51.753Z,33.20
2024-02-29T10:49:26.350Z,29.55
2024-02-29T10:52:01.351Z,26.65
2024-02-29T10:54:33.995Z,26.65
2024-02-29T10:57:01.724Z,28.88
2024-02-29T10:59:30.870Z,27.23
2024-02-29T11:01:58.954Z,28.83
2024-02-29T11:04:27.854Z,25.08
2024-02-29T11:06:57.478Z,30.60
2024-02-29T11:09:28.259Z,29.30
2024-02-29T11:12:09.314Z,28.00
2024-02-29T11:14:37.543Z,32.47
2024-02-29T11:17:06.804Z,29.58
2024-02-29T11:19:43.502Z,29.85
2024-02-29T11:22:20.817Z,32.55
2024-02-29T11:24:48.653Z,28.65
2024-02-29T11:27:16.528Z,32.72
2024-02-29T11:29:47.884Z,31.27
2024-02-29T11:32:16.032Z,28.00
2024-02-29T11:34:44.507Z,27.27
2024-02-29T11:37:12.524Z,32.58
2024-02-29T11:39:42.631Z,33.72
2024-02-29T11:42:10.398Z,30.17
2024-02-29T11:44:38.185Z,31.58
2024-02-29T11:47:05.976Z,33.25
2024-02-29T11:49:35.145Z,32.40
2024-02-29T11:52:03.200Z,31.00
2024-02-29T11:54:32.003Z,30.10
2024-02-29T11:57:00.138Z,33.33
2024-02-29T11:59:28.245Z,32.60
2024-02-29T12:01:56.074Z,36.08
2024-02-29T12:04:23.953Z,37.10
2024-02-29T12:06:51.870Z,33.33
2024-02-29T12:09:20.421Z,33.58
2024-02-29T12:11:49.320Z,38.38
2024-02-29T12:14:20.466Z,40.25
2024-02-29T12:16:48.843Z,35.50
2024-02-29T12:19:17.190Z,31.23
2024-02-29T12:21:45.294Z,36.15
2024-02-29T12:24:13.153Z,37.30
2024-02-29T12:26:42.400Z,35.45
2024-02-29T12:29:10.775Z,37.35
2024-02-29T12:31:42.565Z,33.72
2024-02-29T12:34:10.412Z,38.13
2024-02-29T12:36:38.215Z,37.45
2024-02-29T12:39:05.961Z,39.70
2024-02-29T12:41:33.811Z,39.80
2024-02-29T12:44:05.979Z,33.38
2024-02-29T12:46:33.820Z,39.90
2024-02-29T12:49:04.831Z,38.63
2024-02-29T12:51:32.716Z,36.47
2024-02-29T12:54:00.405Z,38.58
2024-02-29T12:56:28.246Z,38.28
2024-02-29T12:58:55.995Z,36.83
2024-02-29T13:01:23.928Z,38.67
2024-02-29T13:03:53.099Z,35.83
2024-02-29T13:06:22.484Z,40.47
2024-02-29T13:08:51.224Z,39.90
2024-02-29T13:11:20.312Z,35.63
2024-02-29T13:13:48.072Z,35.00
2024-02-29T13:16:15.790Z,38.72
2024-02-29T13:18:43.512Z,43.20
2024-02-29T13:21:11.220Z,40.92
2024-02-29T13:23:40.268Z,40.03
2024-02-29T13:26:08.383Z,44.30
2024-02-29T13:28:36.217Z,41.30
2024-02-29T13:31:03.939Z,33.63
2024-02-29T13:33:31.744Z,36.95
2024-02-29T13:35:59.474Z,41.88
2024-02-29T13:38:27.284Z,32.80
2024-02-29T13:40:56.301Z,33.13
2024-02-29T13:43:24.177Z,38.85
2024-02-29T13:45:52.053Z,34.15
2024-02-29T13:48:19.838Z,33.53
2024-02-29T13:50:47.535Z,35.03
2024-02-29T13:53:15.754Z,42.03
2024-02-29T13:55:45.832Z,32.05
2024-02-29T13:58:16.403Z,37.15
2024-02-29T14:00:45.095Z,31.75
2024-02-29T14:03:13.609Z,37.55
2024-02-29T14:05:41.343Z,31.02
2024-02-29T14:08:09.610Z,29.63
2024-02-29T14:10:37.356Z,34.95
2024-02-29T14:13:05.386Z,29.08
2024-02-29T14:15:34.749Z,36.78
2024-02-29T14:18:02.536Z,30.23
2024-02-29T14:20:31.066Z,27.13
2024-02-29T14:22:58.914Z,30.08
2024-02-29T14:25:26.738Z,36.88
2024-02-29T14:27:54.898Z,30.58
2024-02-29T14:30:22.725Z,29.67
2024-02-29T14:32:51.845Z,35.75
2024-02-29T14:35:19.681Z,37.78
2024-02-29T14:37:47.429Z,30.42
2024-02-29T14:40:15.295Z,31.52
2024-02-29T14:42:43.977Z,34.30
2024-02-29T14:45:11.940Z,33.72
2024-02-29T14:47:40.049Z,34.60
2024-02-29T14:50:10.611Z,35.13
2024-02-29T14:52:40.624Z,41.05
2024-02-29T14:55:09.181Z,34.90
2024-02-29T14:57:37.005Z,36.72
2024-02-29T15:00:13.196Z,29.98
2024-02-29T15:02:41.101Z,33.83
2024-02-29T15:05:10.892Z,36.35
2024-02-29T15:07:39.229Z,36.25
2024-02-29T15:10:08.153Z,45.13
2024-02-29T15:12:35.955Z,36.72
2024-02-29T15:15:03.731Z,35.63
2024-02-29T15:17:33.860Z,38.85
2024-02-29T15:20:02.277Z,43.13
2024-02-29T15:22:31.541Z,39.67
2024-02-29T15:24:59.300Z,39.85
2024-02-29T15:27:27.474Z,48.78
2024-02-29T15:29:55.272Z,52.22
2024-02-29T15:32:23.705Z,41.80
2024-02-29T15:34:51.443Z,40.72
2024-02-29T15:37:19.323Z,40.50
2024-02-29T15:39:48.538Z,44.80
2024-02-29T15:42:16.308Z,43.65
2024-02-29T15:44:44.046Z,44.47
2024-02-29T15:47:11.801Z,42.42
2024-02-29T15:49:39.535Z,41.28
2024-02-29T15:52:07.768Z,50.58
2024-02-29T15:54:35.533Z,49.40
2024-02-29T15:57:06.759Z,47.28
2024-02-29T15:59:34.520Z,44.90
2024-02-29T16:02:02.321Z,48.45
2024-02-29T16:04:31.269Z,57.72
2024-02-29T16:06:59.862Z,53.70
2024-02-29T16:09:28.078Z,46.58
2024-02-29T16:11:55.841Z,45.03
2024-02-29T16:14:28.471Z,49.13
2024-02-29T16:16:58.907Z,52.13
2024-02-29T16:19:28.835Z,54.15
2024-02-29T16:21:57.954Z,51.10
2024-02-29T16:24:25.669Z,52.38
2024-02-29T16:26:54.436Z,56.60
2024-02-29T16:29:22.134Z,55.33
2024-02-29T16:31:51.196Z,59.45
2024-02-29T16:34:18.992Z,60.85
2024-02-29T16:36:46.822Z,58.20
2024-02-29T16:39:14.621Z,59.92
2024-02-29T16:41:42.975Z,64.68
2024-02-29T16:44:10.695Z,54.78
2024-02-29T16:46:38.535Z,55.22
2024-02-29T16:49:07.714Z,56.97
2024-02-29T16:51:35.486Z,57.92
2024-02-29T16:54:03.219Z,60.35
2024-02-29T16:56:30.966Z,61.42
2024-02-29T16:58:58.777Z,72.30
2024-02-29T17:01:26.520Z,61.75
2024-02-29T17:03:54.264Z,69.45
2024-02-29T17:06:23.477Z,64.57
2024-02-29T17:08:51.167Z,70.70
2024-02-29T17:11:18.957Z,56.92
2024-02-29T17:13:47.088Z,57.47
2024-02-29T17:16:14.859Z,62.05
2024-02-29T17:18:42.963Z,67.60
2024-02-29T17:21:10.895Z,56.03
2024-02-29T17:23:40.615Z,54.78
2024-02-29T17:26:16.425Z,56.65
2024-02-29T17:28:44.193Z,66.13
2024-02-29T17:31:12.147Z,59.67
2024-02-29T17:33:41.187Z,59.65
2024-02-29T17:36:09.118Z,56.15
2024-02-29T17:38:38.010Z,59.97
2024-02-29T17:41:07.154Z,63.75
2024-02-29T17:43:34.921Z,59.58
2024-02-29T17:46:03.392Z,60.72
2024-02-29T17:48:31.202Z,63.35
2024-02-29T17:50:59.703Z,64.25
2024-02-29T17:53:27.449Z,59.05
2024-02-29T17:55:55.256Z,59.80
2024-02-29T17:58:24.844Z,53.10
2024-02-29T18:00:52.793Z,60.92
2024-02-29T18:03:20.613Z,68.18
2024-02-29T18:05:48.360Z,72.35
2024-02-29T18:08:16.140Z,66.95
2024-02-29T18:10:44.207Z,64.13
2024-02-29T18:13:12.122Z,73.07
2024-02-29T18:15:41.391Z,82.85
2024-02-29T18:18:09.608Z,61.40
2024-02-29T18:20:37.438Z,55.33
2024-02-29T18:23:05.472Z,60.05
2024-02-29T18:25:33.241Z,69.00
2024-02-29T18:28:01.083Z,68.55
2024-02-29T18:30:28.908Z,70.65
2024-02-29T18:32:58.068Z,65.63
2024-02-29T18:35:26.016Z,67.65
2024-02-29T18:37:53.776Z,65.40
2024-02-29T18:40:21.625Z,57.88
2024-02-29T18:42:50.089Z,68.25
2024-02-29T18:45:18.616Z,58.83
2024-02-29T18:47:46.585Z,56.00
2024-02-29T18:50:15.712Z,64.45
2024-02-29T18:52:43.509Z,64.10
2024-02-29T18:55:11.393Z,84.50
2024-02-29T18:57:39.173Z,62.72
2024-02-29T19:00:09.756Z,55.05
2024-02-29T19:02:37.587Z,63.72
2024-02-29T19:05:06.463Z,57.67
2024-02-29T19:07:35.598Z,55.95
2024-02-29T19:10:03.598Z,67.18
2024-02-29T19:12:31.517Z,62.75
2024-02-29T19:14:59.228Z,66.57
2024-02-29T19:17:26.969Z,65.65
2024-02-29T19:19:55.580Z,67.32
2024-02-29T19:22:23.565Z,61.72
2024-02-29T19:24:52.901Z,63.55
2024-02-29T19:27:22.935Z,69.95
2024-02-29T19:29:53.196Z,54.38
2024-02-29T19:32:21.104Z,56.30
2024-02-29T19:34:50.115Z,58.88
2024-02-29T19:37:18.159Z,54.47
2024-02-29T19:39:48.031Z,55.83
2024-02-29T19:42:18.108Z,63.15
2024-02-29T19:44:45.955Z,73.40
2024-02-29T19:47:14.540Z,66.43
2024-02-29T19:49:42.392Z,58.13
2024-02-29T19:52:10.753Z,62.55
2024-02-29T19:54:38.874Z,66.28
2024-02-29T19:57:06.824Z,71.93
2024-02-29T19:59:36.055Z,75.78
2024-02-29T20:02:03.893Z,68.72
2024-02-29T20:04:31.855Z,62.33
2024-02-29T20:06:59.709Z,57.13
2024-02-29T20:09:27.539Z,66.88
2024-02-29T20:11:55.537Z,55.45
2024-02-29T20:14:23.326Z,62.88
2024-02-29T20:16:52.520Z,68.25
2024-02-29T20:19:20.384Z,61.35
2024-02-29T20:21:48.637Z,65.65
2024-02-29T20:24:16.490Z,56.33
2024-02-29T20:26:44.642Z,65.82
2024-02-29T20:29:12.440Z,72.10
2024-02-29T20:31:40.261Z,73.15
2024-02-29T20:34:09.427Z,68.80
2024-02-29T20:36:37.493Z,72.25
2024-02-29T20:39:05.422Z,74.75
2024-02-29T20:41:33.201Z,64.15
2024-02-29T20:44:01.432Z,63.08
2024-02-29T20:46:30.522Z,62.67
2024-02-29T20:48:58.403Z,74.70
2024-02-29T20:51:28.672Z,60.53
2024-02-29T20:53:56.588Z,70.32
2024-02-29T20:56:24.432Z,67.70
2024-02-29T20:58:52.188Z,65.00
2024-02-29T21:01:20.018Z,66.20
2024-02-29T21:03:48.957Z,57.60
2024-02-29T21:06:18.305Z,56.55
2024-02-29T21:08:47.410Z,66.18
2024-02-29T21:11:15.247Z,64.65
2024-02-29T21:13:43.543Z,59.28
2024-02-29T21:16:11.266Z,70.13
2024-02-29T21:18:38.990Z,67.95
2024-02-29T21:21:07.024Z,66.28
2024-02-29T21:23:35.089Z,70.03
2024-02-29T21:26:04.405Z,72.13
2024-02-29T21:28:32.238Z,63.30
2024-02-29T21:31:00.030Z,77.00
2024-02-29T21:33:27.830Z,73.50
2024-02-29T21:35:56.041Z,73.63
2024-02-29T21:38:23.813Z,72.15
2024-02-29T21:40:51.681Z,74.43
2024-02-29T21:43:20.803Z,71.75
2024-02-29T21:45:48.675Z,78.32
2024-02-29T21:48:16.461Z,64.53
2024-02-29T21:50:45.974Z,66.93
2024-02-29T21:53:13.753Z,64.32
2024-02-29T21:55:41.467Z,69.15
2024-02-29T21:58:09.435Z,69.80
2024-02-29T22:00:38.575Z,71.70
2024-02-29T22:03:06.490Z,63.83
2024-02-29T22:05:34.241Z,70.28
2024-02-29T22:08:01.979Z,70.55
2024-02-29T22:10:29.846Z,70.63
2024-02-29T22:12:57.578Z,69.70
2024-02-29T22:15:25.312Z,66.53
2024-02-29T22:17:56.126Z,63.38
2024-02-29T22:20:24.552Z,64.22
2024-02-29T22:22:52.499Z,61.55
2024-02-29T22:25:20.399Z,59.38
2024-02-29T22:27:48.149Z,66.90
2024-02-29T22:30:16.326Z,61.42
2024-02-29T22:32:44.079Z,60.15
2024-02-29T22:35:13.409Z,54.17
2024-02-29T22:37:41.223Z,57.35
2024-02-29T22:40:10.409Z,53.97
2024-02-29T22:42:38.183Z,69.13
2024-02-29T22:45:07.081Z,62.95
2024-02-29T22:47:34.828Z,56.65
2024-02-29T22:50:02.553Z,60.15
2024-02-29T22:52:31.629Z,67.63
2024-02-29T22:54:59.486Z,60.75
2024-02-29T22:57:27.275Z,66.57
2024-02-29T22:59:54.997Z,72.90
2024-02-29T23:02:22.889Z,82.72
2024-02-29T23:04:50.621Z,76.10
2024-02-29T23:07:18.831Z,78.57
2024-02-29T23:09:48.016Z,81.53
2024-02-29T23:12:15.773Z,77.72
2024-02-29T23:14:43.533Z,76.88
2024-02-29T23:17:11.482Z,88.28
2024-02-29T23:19:39.219Z,76.70
2024-02-29T23:22:07.092Z,98.63
2024-02-29T23:24:34.971Z,94.20
2024-02-29T23:27:04.190Z,143.15
2024-02-29T23:29:31.979Z,157.35
2024-02-29T23:31:59.815Z,154.48
2024-02-29T23:34:27.679Z,150.15
2024-02-29T23:36:55.561Z,85.85
2024-02-29T23:39:23.390Z,115.78
2024-02-29T23:41:51.157Z,109.35
2024-02-29T23:44:20.239Z,228.82
2024-02-29T23:46:48.039Z,125.05
2024-02-29T23:49:16.033Z,179.70
2024-02-29T23:51:44.512Z,203.63
2024-02-29T23:54:12.243Z,82.47
2024-02-29T23:56:39.961Z,80.97
2024-02-29T23:59:07.670Z,126.97
